Time;durP1;ratioP1;P1;durP2;ratioP2;P2;SDS_P1;SDS_P2;PMS_P1;PMS_P2;Temp;Humidity;BMP_temperature;BMP_pressure;BME280_temperature;BME280_humidity;BME280_pressure;Samples;Min_cycle;Max_cycle;Signal;HPM_P1;HPM_P2
2021/07/27 00:00:02;;;;;;;11.50;7.32;;;;;;;25.14;51.10;95380.81;4967072;28;20038;-70
2021/07/27 00:02:27;;;;;;;11.10;7.07;;;;;;;25.11;50.77;95381.84;4959677;28;20023;-72
2021/07/27 00:04:53;;;;;;;11.40;7.03;;;;;;;25.06;50.89;95379.88;4966362;28;20043;-71
2021/07/27 00:07:18;;;;;;;9.95;7.55;;;;;;;25.08;51.55;95371.94;4964946;28;20031;-71
2021/07/27 00:09:44;;;;;;;9.52;6.78;;;;;;;25.06;51.83;95377.16;4966817;28;20520;-70
2021/07/27 00:12:09;;;;;;;10.43;7.20;;;;;;;25.01;52.14;95372.50;4958332;28;20035;-72
2021/07/27 00:14:34;;;;;;;11.07;7.07;;;;;;;24.97;52.17;95376.72;4961781;28;20030;-71
2021/07/27 00:17:00;;;;;;;11.85;7.55;;;;;;;24.95;52.50;95384.69;4948359;28;20034;-71
2021/07/27 00:19:25;;;;;;;9.80;7.30;;;;;;;24.90;52.50;95388.97;4966431;28;20027;-71
2021/07/27 00:21:51;;;;;;;10.15;6.82;;;;;;;24.85;52.55;95387.00;4967260;28;20473;-71
2021/07/27 00:24:16;;;;;;;9.95;7.40;;;;;;;24.76;52.52;95380.41;4958625;28;20031;-71
2021/07/27 00:26:42;;;;;;;11.00;7.13;;;;;;;24.75;52.44;95376.19;4968562;28;20108;-72
2021/07/27 00:29:07;;;;;;;9.57;7.45;;;;;;;24.73;51.88;95384.16;4968044;28;20493;-70
2021/07/27 00:31:32;;;;;;;11.27;7.30;;;;;;;24.76;51.72;95389.31;4970124;28;20493;-71
2021/07/27 00:33:58;;;;;;;11.23;7.20;;;;;;;24.75;52.63;95395.28;4970136;28;20476;-70
2021/07/27 00:36:23;;;;;;;10.52;7.32;;;;;;;24.71;53.03;95390.13;4952476;28;20122;-71
2021/07/27 00:38:49;;;;;;;15.05;7.50;;;;;;;24.70;53.06;95391.34;4968178;28;20034;-71
2021/07/27 00:41:15;;;;;;;11.48;7.45;;;;;;;24.60;52.50;95392.19;4968763;28;20030;-71
2021/07/27 00:43:40;;;;;;;11.05;7.82;;;;;;;24.59;52.17;95390.72;4970466;28;20426;-71
2021/07/27 00:46:06;;;;;;;9.38;6.88;;;;;;;24.57;52.89;95391.22;4968156;28;20027;-71
2021/07/27 00:48:31;;;;;;;10.30;7.82;;;;;;;24.56;53.36;95391.75;4969869;28;20031;-71
2021/07/27 00:50:57;;;;;;;12.32;7.68;;;;;;;24.55;53.16;95390.25;4966824;28;20038;-70
2021/07/27 00:53:22;;;;;;;11.35;7.57;;;;;;;24.52;53.70;95383.06;4969080;28;20096;-70
2021/07/27 00:55:48;;;;;;;11.27;7.50;;;;;;;24.48;53.14;95385.31;4970287;28;20030;-71
2021/07/27 00:58:14;;;;;;;10.40;7.72;;;;;;;24.48;53.22;95390.78;4969283;28;20055;-71
2021/07/27 01:00:39;;;;;;;10.13;7.38;;;;;;;24.47;53.48;95389.31;4969764;28;20023;-70
2021/07/27 01:03:05;;;;;;;11.80;7.32;;;;;;;24.46;53.64;95387.81;4969760;28;20134;-70
2021/07/27 01:05:30;;;;;;;10.20;7.55;;;;;;;24.17;53.56;95355.75;4969730;28;20027;-70
2021/07/27 01:07:56;;;;;;;12.88;8.05;;;;;;;24.40;53.64;95395.31;4949938;28;20389;-71
2021/07/27 01:10:22;;;;;;;9.48;7.53;;;;;;;24.33;54.04;95390.38;4952253;28;20038;-70
2021/07/27 01:12:48;;;;;;;8.10;6.95;;;;;;;24.36;54.20;95394.84;4949593;28;20031;-70
2021/07/27 01:15:13;;;;;;;9.90;7.40;;;;;;;24.33;53.93;95395.84;4969531;28;20484;-71
2021/07/27 01:17:39;;;;;;;12.40;7.63;;;;;;;24.31;54.09;95392.13;4967959;28;20059;-70
2021/07/27 01:39:21;;;;;;;10.38;7.43;;;;;;;24.07;54.50;95390.03;4960964;28;20690;-70
2021/07/27 01:44:44;;;;;;;10.52;7.40;;;;;;;24.03;54.71;95395.00;4934372;29;20623;-71
2021/07/27 01:47:30;;;;;;;12.20;7.85;;;;;;;23.83;54.57;95358.44;4956094;28;20038;-71
2021/07/27 01:49:55;;;;;;;10.07;7.32;;;;;;;23.98;54.86;95387.59;4967883;28;20058;-70
2021/07/27 01:52:24;;;;;;;10.50;7.38;;;;;;;23.96;54.30;95383.88;4967284;28;20047;-71
2021/07/27 01:54:52;;;;;;;8.85;7.00;;;;;;;23.95;54.04;95385.88;4968749;28;20494;-70
2021/07/27 01:57:17;;;;;;;9.52;7.25;;;;;;;23.93;54.36;95382.91;4966302;28;20034;-71
2021/07/27 01:59:58;;;;;;;11.45;7.45;;;;;;;23.93;54.68;95380.19;4951155;28;20490;-71
2021/07/27 02:02:24;;;;;;;10.65;7.30;;;;;;;23.88;54.61;95383.69;4968018;28;20019;-71
2021/07/27 02:04:49;;;;;;;11.70;7.78;;;;;;;23.88;54.60;95383.69;4968513;28;20544;-71
2021/07/27 02:07:15;;;;;;;13.18;7.25;;;;;;;23.86;55.07;95387.44;4967441;28;20398;-71
2021/07/27 02:09:43;;;;;;;10.55;7.22;;;;;;;23.84;55.08;95392.63;4949542;28;20026;-70
2021/07/27 02:12:24;;;;;;;10.07;7.45;;;;;;;23.82;55.09;95389.66;4967962;28;20122;-71
2021/07/27 02:15:06;;;;;;;12.02;7.38;;;;;;;23.77;55.19;95398.63;4952623;28;20033;-71
2021/07/27 02:17:32;;;;;;;12.98;7.78;;;;;;;23.70;54.80;95404.59;4948443;29;20027;-71
2021/07/27 02:20:01;;;;;;;9.00;7.32;;;;;;;23.64;55.15;95401.13;4948146;29;20051;-70
2021/07/27 02:22:26;;;;;;;11.32;8.15;;;;;;;23.66;55.01;95404.09;4931850;29;20046;-70
2021/07/27 02:24:52;;;;;;;10.57;7.57;;;;;;;23.40;54.84;95365.50;4949359;29;20031;-71
2021/07/27 02:27:17;;;;;;;10.20;7.30;;;;;;;23.59;55.18;95404.59;4948818;28;20423;-70
2021/07/27 02:29:45;;;;;;;10.30;7.50;;;;;;;23.59;54.66;95399.16;4966832;28;20058;-71
2021/07/27 02:32:11;;;;;;;11.43;7.90;;;;;;;23.58;55.37;95394.94;4967714;28;20023;-71
2021/07/27 02:34:37;;;;;;;13.10;7.38;;;;;;;23.55;55.49;95393.22;4964883;28;20520;-72
2021/07/27 02:37:03;;;;;;;10.50;7.55;;;;;;;23.55;55.37;95393.22;4968243;28;20038;-71
2021/07/27 02:39:28;;;;;;;10.40;7.55;;;;;;;23.38;55.75;95363.28;4966679;28;20058;-71
2021/07/27 02:41:53;;;;;;;12.30;7.88;;;;;;;23.57;55.31;95393.44;4968307;28;20031;-70
2021/07/27 02:44:19;;;;;;;10.30;7.38;;;;;;;23.54;55.37;95391.72;4967565;28;20031;-72
2021/07/27 02:46:44;;;;;;;10.93;7.63;;;;;;;23.53;54.97;95390.25;4967781;28;20023;-71
2021/07/27 02:49:10;;;;;;;10.90;7.72;;;;;;;23.53;55.38;95390.25;4964622;28;20043;-71
2021/07/27 02:51:35;;;;;;;14.93;8.68;;;;;;;23.50;55.53;95397.44;4965006;28;20026;-72
2021/07/27 02:54:01;;;;;;;10.32;7.50;;;;;;;23.48;55.55;95391.00;4964858;28;20079;-71
2021/07/27 02:56:26;;;;;;;10.00;7.63;;;;;;;23.45;55.93;95400.94;4967735;28;20027;-70
2021/07/27 02:58:52;;;;;;;9.20;7.18;;;;;;;23.42;55.61;95395.72;4966952;28;20035;-71
2021/07/27 03:01:17;;;;;;;12.25;8.00;;;;;;;23.39;56.21;95408.38;4967731;28;20027;-71
2021/07/27 03:03:42;;;;;;;11.65;7.80;;;;;;;23.36;55.88;95403.16;4964135;28;20070;-71
2021/07/27 03:06:11;;;;;;;10.93;7.43;;;;;;;23.36;56.03;95408.63;4966158;28;20035;-71
2021/07/27 03:11:13;;;;;;;11.00;7.63;;;;;;;23.34;56.29;95404.94;4967112;28;20037;-71
2021/07/27 03:13:39;;;;;;;10.45;7.60;;;;;;;23.33;55.71;95404.16;4948631;28;20054;-70
2021/07/27 03:16:04;;;;;;;12.00;8.30;;;;;;;23.24;56.22;95398.97;4967350;28;20066;-70
2021/07/27 03:18:30;;;;;;;11.55;7.88;;;;;;;23.33;55.54;95409.63;4966894;28;20085;-70
2021/07/27 03:20:55;;;;;;;9.75;7.93;;;;;;;23.33;55.67;95420.53;4967831;28;20027;-70
2021/07/27 03:23:28;;;;;;;10.57;7.78;;;;;;;23.30;55.93;95416.06;4950556;28;20030;-71
2021/07/27 03:25:53;;;;;;;14.13;7.57;;;;;;;23.30;56.21;95410.63;4950934;28;20042;-71
2021/07/27 03:28:28;;;;;;;11.27;7.28;;;;;;;23.01;56.10;95370.31;4947603;29;20023;-71
2021/07/27 03:30:53;;;;;;;10.02;7.13;;;;;;;23.23;56.29;95411.13;4924695;29;20805;-70
2021/07/27 03:33:19;;;;;;;9.43;6.95;;;;;;;23.22;56.64;95415.09;4947867;29;20023;-70
2021/07/27 03:35:44;;;;;;;12.57;8.35;;;;;;;22.99;56.27;95380.97;4966054;28;20042;-72
2021/07/27 03:38:09;;;;;;;10.57;7.95;;;;;;;23.21;56.69;95419.06;4966528;28;20026;-70
2021/07/27 03:40:36;;;;;;;11.98;8.27;;;;;;;22.96;56.78;95390.13;4967107;28;20030;-70
2021/07/27 03:43:02;;;;;;;10.38;7.53;;;;;;;23.20;56.86;95423.03;4967112;28;20509;-71
2021/07/27 03:45:27;;;;;;;12.30;7.80;;;;;;;23.21;56.67;95429.22;4967319;28;20089;-70
2021/07/27 03:47:53;;;;;;;11.75;8.43;;;;;;;23.22;56.56;95428.00;4964996;28;20035;-70
2021/07/27 03:50:18;;;;;;;9.07;7.25;;;;;;;23.23;56.79;95432.94;4965077;28;20070;-73
2021/07/27 03:52:43;;;;;;;9.82;8.00;;;;;;;23.23;56.69;95424.75;4964029;28;20022;-70
2021/07/27 03:55:09;;;;;;;11.85;7.80;;;;;;;23.22;56.69;95433.44;4967335;28;20031;-71
2021/07/27 03:57:35;;;;;;;11.52;7.78;;;;;;;23.23;56.55;95432.94;4966306;28;20116;-70
2021/07/27 04:00:00;;;;;;;11.32;8.48;;;;;;;23.24;56.97;95428.97;4966743;28;20034;-71
2021/07/27 04:02:26;;;;;;;9.95;7.60;;;;;;;23.26;56.52;95431.19;4968900;28;20085;-71
2021/07/27 04:04:52;;;;;;;13.32;7.93;;;;;;;23.26;56.58;95434.66;4969285;28;20117;-71
2021/07/27 04:07:17;;;;;;;12.68;7.93;;;;;;;23.27;57.13;95436.13;4969355;28;20027;-71
2021/07/27 04:09:43;;;;;;;11.07;8.30;;;;;;;23.29;57.36;95436.41;4952144;28;20164;-72
2021/07/27 04:12:08;;;;;;;14.55;8.68;;;;;;;23.28;57.42;95440.34;4961957;28;20027;-70
2021/07/27 04:14:58;;;;;;;12.65;7.70;;;;;;;23.23;57.49;95419.31;4957747;28;20026;-71
2021/07/27 04:17:23;;;;;;;13.48;7.90;;;;;;;23.32;57.55;95435.41;4939496;28;20039;-71
2021/07/27 04:19:49;;;;;;;12.18;8.23;;;;;;;23.33;57.55;95436.88;4970171;28;20038;-71
2021/07/27 04:22:15;;;;;;;13.13;8.60;;;;;;;23.33;57.60;95442.31;4971034;28;20030;-71
2021/07/27 04:24:40;;;;;;;14.50;8.30;;;;;;;23.36;57.84;95446.78;4970674;28;20031;-71
2021/07/27 04:27:05;;;;;;;10.75;7.57;;;;;;;23.38;58.10;95444.31;4968953;28;20026;-70
2021/07/27 04:29:31;;;;;;;11.32;7.88;;;;;;;23.38;57.97;95444.31;4951111;28;20040;-71
2021/07/27 04:31:57;;;;;;;10.02;7.93;;;;;;;23.41;58.49;95443.31;4970182;28;20031;-70
2021/07/27 04:34:22;;;;;;;10.85;7.70;;;;;;;23.42;58.54;95439.31;4968782;28;20041;-72
2021/07/27 04:36:54;;;;;;;10.10;7.90;;;;;;;23.45;57.91;95441.81;4953012;28;20041;-73
2021/07/27 04:39:19;;;;;;;12.15;8.18;;;;;;;23.45;58.16;95432.88;4966270;28;20130;-72
2021/07/27 04:41:44;;;;;;;11.82;8.38;;;;;;;23.50;58.18;95429.41;4970227;28;20100;-71
2021/07/27 04:44:10;;;;;;;10.88;7.95;;;;;;;23.53;58.81;95431.16;4969701;28;20093;-71
2021/07/27 04:46:35;;;;;;;11.05;8.10;;;;;;;23.56;58.55;95421.97;4969978;28;20042;-70
2021/07/27 04:49:01;;;;;;;12.77;9.07;;;;;;;23.53;58.42;95422.97;4958104;28;20167;-69
2021/07/27 04:51:30;;;;;;;11.55;8.45;;;;;;;23.55;59.16;95423.19;4968080;28;20027;-71
2021/07/27 04:53:58;;;;;;;11.07;8.50;;;;;;;23.62;59.04;95419.97;4969059;28;20022;-70
2021/07/27 04:56:25;;;;;;;12.23;8.57;;;;;;;23.70;58.19;95427.13;4969991;28;20026;-71
2021/07/27 04:58:50;;;;;;;12.32;8.90;;;;;;;23.78;58.94;95432.81;4958271;28;20031;-71
2021/07/27 05:01:16;;;;;;;688.95;204.82;;;;;;;23.84;58.83;95441.72;4961727;28;20076;-70
2021/07/27 05:03:41;;;;;;;1894.35;722.67;;;;;;;23.91;57.83;95442.66;4964506;28;20047;-71
2021/07/27 05:06:07;;;;;;;1999.90;999.90;;;;;;;23.82;57.15;95414.22;4960520;28;20041;-71
2021/07/27 05:08:33;;;;;;;1845.38;664.17;;;;;;;24.04;56.92;95437.41;4962139;28;20038;-70
2021/07/27 05:11:00;;;;;;;11.75;8.20;;;;;;;23.99;56.54;95416.38;4969026;28;20530;-71
2021/07/27 05:13:26;;;;;;;13.75;8.30;;;;;;;24.16;55.66;95441.56;4971281;28;20027;-73
2021/07/27 05:15:55;;;;;;;17.25;8.98;;;;;;;24.24;55.69;95437.06;4970253;28;20037;-71
2021/07/27 05:18:20;;;;;;;12.77;9.23;;;;;;;24.35;54.84;95447.97;4968822;28;20033;-71
2021/07/27 05:20:46;;;;;;;15.77;8.82;;;;;;;24.31;53.70;95422.88;4969023;28;20023;-71
2021/07/27 05:23:11;;;;;;;16.55;9.52;;;;;;;24.58;53.75;95454.78;4968638;28;20030;-74
2021/07/27 05:25:37;;;;;;;13.40;8.95;;;;;;;24.69;53.29;95454.69;4969078;28;20031;-72
2021/07/27 05:28:02;;;;;;;12.07;8.73;;;;;;;24.81;53.45;95451.34;4968483;28;20054;-74
2021/07/27 05:30:29;;;;;;;13.10;9.32;;;;;;;24.93;53.54;95453.53;4968860;28;20038;-72
2021/07/27 05:32:59;;;;;;;15.40;10.52;;;;;;;25.07;52.21;95452.44;4969060;28;20035;-72
2021/07/27 05:35:25;;;;;;;13.20;8.60;;;;;;;25.13;52.05;95434.00;4955116;28;20026;-75
2021/07/27 05:37:50;;;;;;;13.93;8.23;;;;;;;25.31;51.65;95444.28;4960642;28;20442;-76
2021/07/27 05:40:16;;;;;;;15.13;8.55;;;;;;;25.43;51.20;95453.84;4957190;28;20136;-76
2021/07/27 05:42:41;;;;;;;14.65;9.35;;;;;;;25.57;51.42;95449.97;4968294;28;20030;-76
2021/07/27 05:45:07;;;;;;;15.68;9.05;;;;;;;25.69;50.94;95456.84;4956641;28;20049;-77
2021/07/27 05:47:33;;;;;;;16.85;9.98;;;;;;;25.79;50.78;95453.97;4968326;28;20435;-75
2021/07/27 05:49:58;;;;;;;132.40;60.75;;;;;;;25.91;50.41;95452.59;4957194;28;20027;-74
2021/07/27 05:52:24;;;;;;;20.08;10.38;;;;;;;26.04;50.17;95454.69;4954762;28;20015;-74
2021/07/27 05:54:51;;;;;;;52.53;33.08;;;;;;;25.92;50.08;95426.72;4958454;28;20023;-73
2021/07/27 05:57:17;;;;;;;16.60;9.73;;;;;;;26.11;49.43;95432.94;4938183;29;20100;-73
2021/07/27 05:59:43;;;;;;;18.95;9.77;;;;;;;26.31;48.89;95451.63;4944183;28;20047;-72
2021/07/27 06:02:09;;;;;;;17.58;9.20;;;;;;;26.48;48.39;95460.38;4961247;28;20034;-71
2021/07/27 06:04:35;;;;;;;15.93;8.15;;;;;;;26.58;48.31;95456.72;4960497;28;20137;-72
2021/07/27 06:07:01;;;;;;;12.48;7.88;;;;;;;26.70;48.26;95460.06;4962242;28;20129;-69
2021/07/27 06:09:27;;;;;;;17.92;9.55;;;;;;;26.81;47.47;95464.09;4954511;28;20027;-69
2021/07/27 06:11:52;;;;;;;16.23;8.50;;;;;;;26.91;47.03;95467.97;4968357;28;20109;-71
2021/07/27 06:14:17;;;;;;;23.08;9.38;;;;;;;27.01;46.85;95463.59;4967554;28;20037;-72
2021/07/27 06:16:43;;;;;;;16.02;8.38;;;;;;;27.11;46.21;95459.16;4968420;28;20041;-71
2021/07/27 06:19:09;;;;;;;14.18;8.20;;;;;;;27.08;46.16;95445.78;4966454;28;20105;-69
2021/07/27 06:21:41;;;;;;;12.75;7.97;;;;;;;27.24;46.23;95454.47;4967700;28;20014;-70
2021/07/27 06:24:07;;;;;;;15.02;7.60;;;;;;;27.37;46.09;95451.03;4966406;28;20165;-72
2021/07/27 06:26:32;;;;;;;12.88;8.20;;;;;;;27.40;45.79;95444.50;4968307;28;20046;-71
2021/07/27 06:29:00;;;;;;;13.38;7.00;;;;;;;27.41;46.27;95446.72;4950639;28;20039;-70
2021/07/27 06:31:26;;;;;;;29.23;14.60;;;;;;;27.34;46.68;95443.84;4959072;28;20035;-79
2021/07/27 06:33:51;;;;;;;68.00;52.72;;;;;;;27.32;46.55;95438.13;4962781;28;20039;-79
2021/07/27 06:36:17;;;;;;;69.22;60.65;;;;;;;27.33;46.68;95450.59;4962376;28;20034;-78
2021/07/27 06:38:42;;;;;;;14.13;10.75;;;;;;;27.30;46.75;95446.16;4948298;28;20038;-79
2021/07/27 06:41:08;;;;;;;13.75;7.80;;;;;;;27.31;46.88;95444.88;4961009;28;20501;-79
2021/07/27 06:43:34;;;;;;;12.60;7.15;;;;;;;27.29;46.75;95447.41;4961295;28;20537;-79
2021/07/27 06:46:00;;;;;;;122.38;40.88;;;;;;;27.26;47.14;95451.94;4961611;28;20030;-78
2021/07/27 06:48:25;;;;;;;11.15;6.40;;;;;;;27.25;47.15;95438.75;4950765;28;20081;-77
2021/07/27 06:50:51;;;;;;;9.02;5.60;;;;;;;27.24;47.42;95442.75;4953071;28;20089;-78
2021/07/27 06:53:17;;;;;;;10.82;6.05;;;;;;;27.24;47.19;95442.75;4969723;28;20061;-78
2021/07/27 06:55:42;;;;;;;11.15;6.70;;;;;;;27.20;47.53;95447.81;4957600;28;20035;-76
2021/07/27 06:58:10;;;;;;;10.63;6.22;;;;;;;27.19;47.44;95440.09;4961936;28;20484;-77
2021/07/27 07:00:39;;;;;;;8.77;6.18;;;;;;;27.18;47.38;95447.59;4958122;28;20059;-75
2021/07/27 07:03:07;;;;;;;8.50;6.50;;;;;;;27.14;47.60;95436.19;4962505;28;20054;-78
2021/07/27 07:05:33;;;;;;;10.02;5.93;;;;;;;27.14;47.67;95438.94;4970120;28;20034;-77
2021/07/27 07:07:58;;;;;;;8.02;5.57;;;;;;;27.12;47.46;95441.47;4959162;28;20047;-78
2021/07/27 07:10:23;;;;;;;9.90;6.65;;;;;;;27.12;47.94;95441.47;4960639;28;20039;-77
2021/07/27 07:12:49;;;;;;;9.75;5.85;;;;;;;27.09;48.02;95437.03;4962635;28;20031;-77
2021/07/27 07:15:15;;;;;;;9.13;5.82;;;;;;;27.09;47.82;95437.03;4960301;28;20034;-77
2021/07/27 07:17:40;;;;;;;8.90;5.57;;;;;;;27.08;48.09;95440.28;4951513;28;20093;-77
2021/07/27 07:20:06;;;;;;;8.98;5.93;;;;;;;27.08;48.03;95438.28;4949970;28;20027;-77
2021/07/27 07:22:32;;;;;;;9.77;5.78;;;;;;;26.85;46.38;95406.97;4960683;28;20276;-75
2021/07/27 07:24:57;;;;;;;8.82;5.70;;;;;;;27.05;46.67;95431.09;4950868;28;20022;-80
2021/07/27 07:27:23;;;;;;;8.82;5.40;;;;;;;27.05;47.16;95441.34;4960103;28;20070;-83
2021/07/27 07:29:51;;;;;;;19.58;9.20;;;;;;;27.04;46.19;95428.88;4963440;28;20030;-77
2021/07/27 07:32:17;;;;;;;8.98;5.60;;;;;;;27.02;45.87;95423.91;4960772;28;20109;-78
2021/07/27 07:34:42;;;;;;;10.18;5.85;;;;;;;27.00;46.05;95429.19;4969850;28;20034;-79
2021/07/27 07:37:08;;;;;;;29.33;22.92;;;;;;;27.00;45.77;95420.97;4943801;28;20557;-78
2021/07/27 07:39:34;;;;;;;8.30;5.55;;;;;;;27.00;45.52;95426.47;4943782;28;20560;-78
2021/07/27 07:42:00;;;;;;;8.85;7.40;;;;;;;27.01;45.68;95436.16;4952432;28;20058;-77
2021/07/27 07:44:25;;;;;;;1101.10;812.55;;;;;;;26.99;45.58;95433.19;4971519;28;20030;-78
2021/07/27 07:46:51;;;;;;;1114.85;756.13;;;;;;;26.99;45.54;95433.19;4958391;28;20455;-78
2021/07/27 07:49:16;;;;;;;639.10;423.45;;;;;;;26.99;44.98;95426.97;4950178;28;20425;-78
2021/07/27 07:51:47;;;;;;;431.08;276.30;;;;;;;26.99;44.66;95437.94;4969623;28;20023;-77
2021/07/27 07:54:13;;;;;;;8.27;5.00;;;;;;;26.96;44.16;95434.22;4967506;28;20256;-77
2021/07/27 07:56:42;;;;;;;6.15;5.03;;;;;;;26.97;43.89;95432.97;4967693;28;20057;-78
2021/07/27 07:59:07;;;;;;;7.55;5.35;;;;;;;26.95;44.20;95432.78;4967065;28;20089;-78
2021/07/27 08:01:33;;;;;;;7.32;5.10;;;;;;;26.91;44.09;95428.84;4967562;28;20031;-78
2021/07/27 08:03:58;;;;;;;5.85;4.57;;;;;;;26.91;44.01;95431.59;4967584;28;20061;-78
2021/07/27 08:06:25;;;;;;;6.13;5.03;;;;;;;26.51;44.51;95375.13;4963948;28;20062;-79
2021/07/27 08:08:50;;;;;;;6.28;5.15;;;;;;;26.85;43.93;95423.44;4967772;28;20037;-78
2021/07/27 08:11:16;;;;;;;7.70;5.43;;;;;;;26.87;44.09;95434.59;4968836;28;20848;-77
2021/07/27 08:13:41;;;;;;;7.07;5.30;;;;;;;26.89;43.89;95434.09;4963927;28;20034;-77
2021/07/27 08:16:10;;;;;;;8.20;5.13;;;;;;;26.85;43.57;95431.66;4967006;28;20417;-78
2021/07/27 08:18:36;;;;;;;14.33;9.07;;;;;;;26.85;43.43;95428.91;4966721;28;20035;-77
2021/07/27 08:21:02;;;;;;;6.47;4.85;;;;;;;26.87;43.54;95431.84;4914994;28;20165;-77
2021/07/27 08:23:27;;;;;;;6.38;4.70;;;;;;;26.82;43.44;95421.72;4966099;28;20529;-76
2021/07/27 08:25:53;;;;;;;36.42;11.40;;;;;;;26.83;43.43;95420.47;4951869;28;20081;-77
2021/07/27 08:28:18;;;;;;;278.80;118.18;;;;;;;26.86;43.52;95429.63;4966427;28;20023;-77
2021/07/27 08:30:44;;;;;;;6.57;5.00;;;;;;;26.80;43.59;95424.25;4970387;28;20026;-77
2021/07/27 08:33:09;;;;;;;119.28;68.47;;;;;;;26.84;43.67;95432.91;4966277;28;20054;-76
2021/07/27 08:35:35;;;;;;;605.28;261.23;;;;;;;26.85;43.35;95434.38;4966944;28;20027;-78
2021/07/27 08:38:00;;;;;;;6.80;4.88;;;;;;;26.84;43.45;95424.69;4964350;28;20026;-77
2021/07/27 08:40:28;;;;;;;7.85;5.47;;;;;;;26.84;43.25;95421.94;4968625;28;20045;-77
2021/07/27 08:42:54;;;;;;;112.10;52.63;;;;;;;26.85;43.03;95417.94;4969089;28;20038;-76
2021/07/27 08:45:19;;;;;;;1104.00;690.75;;;;;;;26.83;43.05;95420.47;4946416;28;20046;-77
2021/07/27 08:47:46;;;;;;;1074.05;650.13;;;;;;;26.80;42.74;95410.56;4957367;28;20038;-77
2021/07/27 08:50:12;;;;;;;772.97;409.15;;;;;;;26.80;42.90;95416.03;4977925;28;20113;-77
2021/07/27 08:52:38;;;;;;;866.35;352.90;;;;;;;26.87;42.88;95420.91;4983684;28;20065;-77
2021/07/27 08:55:09;;;;;;;1622.88;657.60;;;;;;;26.86;42.85;95419.44;4983707;28;20039;-72
2021/07/27 08:57:35;;;;;;;7.38;5.22;;;;;;;26.87;43.03;95415.41;4969545;28;20030;-78
2021/07/27 09:00:01;;;;;;;88.80;33.97;;;;;;;26.90;42.90;95414.41;4953501;28;20039;-78
2021/07/27 09:02:30;;;;;;;7.53;4.88;;;;;;;26.91;42.69;95410.41;4967738;28;20564;-77
2021/07/27 09:05:05;;;;;;;159.23;76.37;;;;;;;26.93;43.08;95407.88;4969598;28;20140;-70
2021/07/27 09:07:31;;;;;;;118.00;43.38;;;;;;;26.95;43.03;95399.88;4967984;28;20346;-70
2021/07/27 09:09:56;;;;;;;5.95;5.20;;;;;;;26.94;43.13;95401.13;4966793;28;20118;-72
2021/07/27 09:12:22;;;;;;;7.65;5.00;;;;;;;26.98;42.86;95412.53;4966897;28;20034;-70
2021/07/27 09:14:47;;;;;;;6.82;5.07;;;;;;;26.96;42.90;95401.34;4950065;28;20024;-70
2021/07/27 09:17:13;;;;;;;106.50;40.40;;;;;;;27.04;43.22;95404.97;4949570;28;20038;-70
2021/07/27 09:19:39;;;;;;;949.92;462.67;;;;;;;27.03;42.57;95389.03;4943404;28;20037;-70
2021/07/27 09:22:05;;;;;;;1999.90;973.63;;;;;;;27.12;42.75;95397.59;4952052;28;20074;-70
2021/07/27 09:24:30;;;;;;;7.10;5.47;;;;;;;27.18;42.65;95392.75;4949798;28;20027;-70
2021/07/27 09:26:56;;;;;;;8.07;5.72;;;;;;;27.27;42.53;95389.59;4949802;28;20622;-69
2021/07/27 09:29:23;;;;;;;5.93;5.03;;;;;;;27.31;42.44;95392.78;4949547;28;20065;-70
2021/07/27 09:31:51;;;;;;;7.78;5.00;;;;;;;27.37;42.20;95396.16;4949335;28;20122;-69
2021/07/27 09:34:17;;;;;;;6.78;4.82;;;;;;;27.40;41.83;95387.59;4948480;28;20069;-69
2021/07/27 09:36:43;;;;;;;7.15;5.50;;;;;;;27.43;41.71;95380.34;4961117;28;20591;-69
2021/07/27 09:39:08;;;;;;;7.72;5.00;;;;;;;27.49;41.36;95380.97;4937142;28;20034;-76
2021/07/27 09:41:34;;;;;;;5.78;5.18;;;;;;;27.63;41.74;95385.22;4941429;28;20015;-73
2021/07/27 09:43:59;;;;;;;1999.90;999.90;;;;;;;27.69;41.54;95388.59;4964203;28;20765;-73
2021/07/27 09:46:25;;;;;;;1999.90;999.90;;;;;;;27.79;40.90;95382.88;4962185;28;20039;-72
2021/07/27 09:48:51;;;;;;;1999.90;999.90;;;;;;;27.82;40.88;95376.31;4962989;28;20027;-71
2021/07/27 09:51:17;;;;;;;1999.90;999.90;;;;;;;27.91;40.82;95381.38;4967794;28;20053;-73
2021/07/27 09:53:44;;;;;;;1999.90;980.55;;;;;;;27.96;40.36;95379.78;4940986;29;20346;-71
2021/07/27 09:56:09;;;;;;;17.75;9.13;;;;;;;28.03;40.14;95379.88;4945627;28;20027;-72
2021/07/27 09:58:35;;;;;;;156.45;116.25;;;;;;;28.06;40.08;95378.81;4953527;28;20600;-72
2021/07/27 10:01:11;;;;;;;1999.90;999.90;;;;;;;28.15;40.18;95375.66;4956877;28;20055;-72
2021/07/27 10:03:57;;;;;;;494.77;286.40;;;;;;;28.04;39.99;95347.66;4961347;28;20078;-73
2021/07/27 10:06:49;;;;;;;943.92;549.58;;;;;;;28.26;39.54;95372.66;4952846;28;20055;-72
2021/07/27 10:09:25;;;;;;;260.75;155.38;;;;;;;28.30;39.92;95362.09;4957218;28;20035;-70
2021/07/27 10:11:50;;;;;;;986.25;693.95;;;;;;;28.36;39.14;95362.72;4966422;28;20037;-71
2021/07/27 10:14:16;;;;;;;1553.38;873.72;;;;;;;28.40;39.02;95363.09;4967482;28;20594;-71
2021/07/27 10:16:42;;;;;;;1999.90;999.90;;;;;;;28.43;39.30;95362.03;4966868;28;20556;-71
2021/07/27 10:19:18;;;;;;;1842.45;999.90;;;;;;;28.41;39.18;95359.81;4966813;28;20026;-71
2021/07/27 10:21:44;;;;;;;1648.60;991.33;;;;;;;28.44;39.13;95352.53;4967568;28;20026;-70
2021/07/27 10:24:19;;;;;;;1999.90;999.90;;;;;;;28.43;38.57;95351.03;4967005;28;20683;-72
2021/07/27 10:26:45;;;;;;;1466.00;936.08;;;;;;;28.51;39.12;95351.88;4961041;28;20141;-71
2021/07/27 10:29:10;;;;;;;1575.95;970.10;;;;;;;28.82;37.88;95348.91;4966099;28;20034;-70
2021/07/27 10:31:43;;;;;;;1999.90;999.90;;;;;;;28.56;36.75;95348.25;4950439;28;20114;-71
2021/07/27 10:34:09;;;;;;;1999.90;999.90;;;;;;;27.93;38.48;95337.66;4943364;28;20031;-70
2021/07/27 10:36:42;;;;;;;1999.90;999.90;;;;;;;27.42;39.50;95343.19;4958418;28;20031;-71
2021/07/27 10:39:12;;;;;;;1999.90;999.90;;;;;;;27.13;39.50;95344.25;4944325;28;20050;-71
2021/07/27 10:41:42;;;;;;;274.63;138.65;;;;;;;27.00;39.63;95340.75;4965186;28;20050;-71
2021/07/27 10:44:13;;;;;;;953.67;699.30;;;;;;;26.54;40.28;95307.63;4957576;28;20042;-71
2021/07/27 10:46:48;;;;;;;733.85;440.75;;;;;;;26.65;41.04;95337.56;4939833;28;20023;-71
2021/07/27 10:49:15;;;;;;;1280.25;881.45;;;;;;;26.79;41.38;95337.81;4955570;28;20027;-70
2021/07/27 10:51:41;;;;;;;7.05;6.00;;;;;;;26.84;42.04;95312.31;4952415;28;20106;-70
2021/07/27 10:54:06;;;;;;;1485.05;970.90;;;;;;;27.08;42.53;95334.09;4932004;28;20069;-69
2021/07/27 10:56:32;;;;;;;1421.88;951.15;;;;;;;27.18;43.70;95337.91;4949983;28;20026;-71
2021/07/27 10:58:58;;;;;;;911.20;661.03;;;;;;;27.30;44.79;95330.94;4946148;28;20089;-70
2021/07/27 11:01:28;;;;;;;1002.80;754.85;;;;;;;27.43;44.02;95328.22;4943760;28;20023;-70
2021/07/27 11:03:55;;;;;;;1206.35;864.33;;;;;;;27.48;43.49;95319.13;4972618;28;20050;-71
2021/07/27 11:06:21;;;;;;;1025.13;752.55;;;;;;;27.52;43.87;95322.31;4949309;28;20038;-71
2021/07/27 11:08:46;;;;;;;5.78;4.90;;;;;;;27.23;43.28;95281.47;4949765;28;20513;-71
2021/07/27 11:11:13;;;;;;;376.10;262.52;;;;;;;27.51;43.58;95318.09;4947407;28;20030;-69
2021/07/27 11:13:39;;;;;;;1199.43;849.95;;;;;;;27.45;43.17;95315.44;4949739;28;20031;-70
2021/07/27 11:16:04;;;;;;;1324.45;912.13;;;;;;;27.45;43.21;95317.44;4948677;28;20038;-70
2021/07/27 11:18:30;;;;;;;1250.68;893.45;;;;;;;27.20;42.94;95266.81;4961155;28;20034;-72
2021/07/27 11:20:56;;;;;;;1320.38;922.65;;;;;;;27.17;42.79;95278.84;4945540;28;20026;-70
2021/07/27 11:23:22;;;;;;;1406.50;956.67;;;;;;;27.40;43.49;95308.06;4954915;28;20046;-72
2021/07/27 11:25:57;;;;;;;1221.57;879.60;;;;;;;27.43;43.07;95311.75;4947801;28;20039;-71
2021/07/27 11:28:32;;;;;;;1403.47;960.10;;;;;;;27.41;43.41;95297.81;4960592;28;20315;-70
2021/07/27 11:30:57;;;;;;;1557.60;999.90;;;;;;;27.34;43.54;95309.44;4968823;28;20130;-70
2021/07/27 11:33:23;;;;;;;1765.53;999.90;;;;;;;27.36;43.29;95304.16;4968185;28;20038;-70
2021/07/27 11:35:50;;;;;;;1687.70;999.90;;;;;;;27.20;43.32;95277.78;4968637;28;20041;-70
2021/07/27 11:38:25;;;;;;;1578.15;999.90;;;;;;;27.34;43.34;95298.47;4955745;28;20041;-70
2021/07/27 11:41:08;;;;;;;1589.80;999.90;;;;;;;27.35;43.41;95294.44;4953914;28;20037;-71